sensor_id;sensor_type;location;lat;lon;timestamp;pressure;altitude;pressure_sealevel;temperature;humidity
20160;BME280;50187;50.492;12.134;2023-05-10T00:01:26;96927.63;;;21.40;33.83
20160;BME280;50187;50.492;12.134;2023-05-10T00:03:53;96944.31;;;21.52;33.93
20160;BME280;50187;50.492;12.134;2023-05-10T00:06:20;96932.69;;;21.43;33.92
20160;BME280;50187;50.492;12.134;2023-05-10T00:08:46;96937.16;;;21.51;33.84
20160;BME280;50187;50.492;12.134;2023-05-10T00:11:13;96951.72;;;21.50;33.90
20160;BME280;50187;50.492;12.134;2023-05-10T00:13:40;96958.00;;;21.51;33.91
20160;BME280;50187;50.492;12.134;2023-05-10T00:16:06;96921.69;;;21.45;33.95
20160;BME280;50187;50.492;12.134;2023-05-10T00:18:33;96947.16;;;21.51;34.04
20160;BME280;50187;50.492;12.134;2023-05-10T00:20:59;96925.78;;;21.41;33.75
20160;BME280;50187;50.492;12.134;2023-05-10T00:23:26;96930.81;;;21.44;34.01
20160;BME280;50187;50.492;12.134;2023-05-10T00:25:52;96933.16;;;21.32;34.12
20160;BME280;50187;50.492;12.134;2023-05-10T00:28:19;96914.13;;;21.40;34.07
20160;BME280;50187;50.492;12.134;2023-05-10T00:30:45;96965.63;;;21.47;33.93
20160;BME280;50187;50.492;12.134;2023-05-10T00:33:12;96932.63;;;21.52;33.86
20160;BME280;50187;50.492;12.134;2023-05-10T00:35:39;96938.38;;;21.49;33.76
20160;BME280;50187;50.492;12.134;2023-05-10T00:38:05;96920.66;;;21.46;33.86
20160;BME280;50187;50.492;12.134;2023-05-10T00:40:32;96916.09;;;21.47;33.85
20160;BME280;50187;50.492;12.134;2023-05-10T00:43:03;96950.03;;;21.34;33.96
20160;BME280;50187;50.492;12.134;2023-05-10T00:45:32;96925.41;;;21.44;33.98
20160;BME280;50187;50.492;12.134;2023-05-10T00:48:01;96945.66;;;21.33;33.91
20160;BME280;50187;50.492;12.134;2023-05-10T00:50:28;96912.91;;;21.43;33.71
20160;BME280;50187;50.492;12.134;2023-05-10T00:52:56;96917.31;;;21.44;33.94
20160;BME280;50187;50.492;12.134;2023-05-10T00:55:23;96929.81;;;21.45;33.76
20160;BME280;50187;50.492;12.134;2023-05-10T00:57:50;96936.06;;;21.45;34.01
20160;BME280;50187;50.492;12.134;2023-05-10T01:00:17;96897.44;;;21.37;33.87
20160;BME280;50187;50.492;12.134;2023-05-10T01:02:45;96923.72;;;21.43;33.88
20160;BME280;50187;50.492;12.134;2023-05-10T01:05:13;96903.47;;;21.39;34.04
20160;BME280;50187;50.492;12.134;2023-05-10T01:07:39;96902.47;;;21.40;33.69
20160;BME280;50187;50.492;12.134;2023-05-10T01:10:07;96913.97;;;21.42;33.94
20160;BME280;50187;50.492;12.134;2023-05-10T01:12:37;96910.19;;;21.43;33.82
20160;BME280;50187;50.492;12.134;2023-05-10T01:15:06;96913.28;;;21.40;33.87
20160;BME280;50187;50.492;12.134;2023-05-10T01:17:35;96897.13;;;21.32;33.98
20160;BME280;50187;50.492;12.134;2023-05-10T01:20:04;96922.59;;;21.37;33.81
20160;BME280;50187;50.492;12.134;2023-05-10T01:25:57;96903.66;;;21.37;33.97
20160;BME280;50187;50.492;12.134;2023-05-10T01:29:06;96892.66;;;21.39;33.93
20160;BME280;50187;50.492;12.134;2023-05-10T01:34:23;96902.47;;;21.40;34.03
20160;BME280;50187;50.492;12.134;2023-05-10T01:36:58;96893.34;;;21.41;33.90
20160;BME280;50187;50.492;12.134;2023-05-10T01:39:39;96897.88;;;21.40;34.00
20160;BME280;50187;50.492;12.134;2023-05-10T01:42:14;96876.16;;;21.34;33.88
20160;BME280;50187;50.492;12.134;2023-05-10T01:45:07;96890.81;;;21.39;34.01
20160;BME280;50187;50.492;12.134;2023-05-10T01:50:24;96896.22;;;21.39;34.15
20160;BME280;50187;50.492;12.134;2023-05-10T01:52:57;96883.03;;;21.36;33.97
20160;BME280;50187;50.492;12.134;2023-05-10T01:55:27;96881.59;;;21.34;34.20
20160;BME280;50187;50.492;12.134;2023-05-10T01:58:03;96884.28;;;21.34;34.06
20160;BME280;50187;50.492;12.134;2023-05-10T02:00:31;96879.50;;;21.36;34.10
20160;BME280;50187;50.492;12.134;2023-05-10T02:03:03;96882.50;;;21.41;34.15
20160;BME280;50187;50.492;12.134;2023-05-10T02:05:32;96873.47;;;21.34;34.06
20160;BME280;50187;50.492;12.134;2023-05-10T02:08:01;96884.53;;;21.39;34.04
20160;BME280;50187;50.492;12.134;2023-05-10T02:10:30;96939.78;;;21.30;34.08
20160;BME280;50187;50.492;12.134;2023-05-10T02:12:59;96891.66;;;21.40;34.00
20160;BME280;50187;50.492;12.134;2023-05-10T02:15:27;96882.69;;;21.39;34.07
20160;BME280;50187;50.492;12.134;2023-05-10T02:17:58;96880.28;;;21.30;34.01
20160;BME280;50187;50.492;12.134;2023-05-10T02:20:26;96914.88;;;21.34;34.00
20160;BME280;50187;50.492;12.134;2023-05-10T02:22:55;96884.94;;;21.36;33.95
20160;BME280;50187;50.492;12.134;2023-05-10T02:25:23;96891.84;;;21.38;34.10
20160;BME280;50187;50.492;12.134;2023-05-10T02:27:53;96886.63;;;21.37;34.04
20160;BME280;50187;50.492;12.134;2023-05-10T02:30:22;96894.06;;;21.35;33.96
20160;BME280;50187;50.492;12.134;2023-05-10T02:32:50;96886.63;;;21.37;34.04
20160;BME280;50187;50.492;12.134;2023-05-10T02:35:18;96897.81;;;21.34;33.89
20160;BME280;50187;50.492;12.134;2023-05-10T02:37:46;96891.09;;;21.30;33.84
20160;BME280;50187;50.492;12.134;2023-05-10T02:40:14;96920.47;;;21.33;34.01
20160;BME280;50187;50.492;12.134;2023-05-10T02:42:43;96888.66;;;21.35;33.81
20160;BME280;50187;50.492;12.134;2023-05-10T02:45:13;96893.41;;;21.33;34.11
20160;BME280;50187;50.492;12.134;2023-05-10T02:47:41;96890.03;;;21.31;34.15
20160;BME280;50187;50.492;12.134;2023-05-10T02:50:08;96899.41;;;21.28;34.04
20160;BME280;50187;50.492;12.134;2023-05-10T02:52:47;96886.31;;;21.32;33.90
20160;BME280;50187;50.492;12.134;2023-05-10T02:55:15;96898.16;;;21.31;34.09
20160;BME280;50187;50.492;12.134;2023-05-10T02:57:49;96873.56;;;21.25;34.09
20160;BME280;50187;50.492;12.134;2023-05-10T03:00:17;96877.28;;;21.24;33.93
20160;BME280;50187;50.492;12.134;2023-05-10T03:02:44;96881.00;;;21.23;33.94
20160;BME280;50187;50.492;12.134;2023-05-10T03:05:10;96874.38;;;21.26;34.18
20160;BME280;50187;50.492;12.134;2023-05-10T03:07:37;96882.31;;;21.27;34.22
20160;BME280;50187;50.492;12.134;2023-05-10T03:10:04;96882.97;;;21.30;34.07
20160;BME280;50187;50.492;12.134;2023-05-10T03:13:00;96871.31;;;21.29;34.05
20160;BME280;50187;50.492;12.134;2023-05-10T03:18:18;96877.75;;;21.28;34.08
20160;BME280;50187;50.492;12.134;2023-05-10T03:20:50;96884.81;;;21.29;34.16
20160;BME280;50187;50.492;12.134;2023-05-10T03:23:39;96870.75;;;21.34;34.20
20160;BME280;50187;50.492;12.134;2023-05-10T03:26:08;96865.25;;;21.27;34.07
20160;BME280;50187;50.492;12.134;2023-05-10T03:28:35;96866.47;;;21.24;34.05
20160;BME280;50187;50.492;12.134;2023-05-10T03:31:04;96881.09;;;21.30;34.13
20160;BME280;50187;50.492;12.134;2023-05-10T03:33:33;96859.38;;;21.23;34.05
20160;BME280;50187;50.492;12.134;2023-05-10T03:35:59;96890.63;;;21.26;34.15
20160;BME280;50187;50.492;12.134;2023-05-10T03:38:26;96868.59;;;21.29;34.17
20160;BME280;50187;50.492;12.134;2023-05-10T03:40:55;96886.69;;;21.28;34.17
20160;BME280;50187;50.492;12.134;2023-05-10T03:43:22;96864.22;;;21.28;34.25
20160;BME280;50187;50.492;12.134;2023-05-10T03:45:49;96874.56;;;21.24;34.34
20160;BME280;50187;50.492;12.134;2023-05-10T03:48:15;96871.22;;;21.22;34.25
20160;BME280;50187;50.492;12.134;2023-05-10T03:50:42;96864.44;;;21.26;34.24
20160;BME280;50187;50.492;12.134;2023-05-10T03:53:09;96882.97;;;21.30;34.24
20160;BME280;50187;50.492;12.134;2023-05-10T03:55:35;96885.50;;;21.31;34.10
20160;BME280;50187;50.492;12.134;2023-05-10T03:58:02;96884.63;;;21.31;34.14
20160;BME280;50187;50.492;12.134;2023-05-10T04:00:29;96881.09;;;21.30;34.20
20160;BME280;50187;50.492;12.134;2023-05-10T04:02:56;96865.44;;;21.25;34.15
20160;BME280;50187;50.492;12.134;2023-05-10T04:05:23;96868.16;;;21.25;34.10
20160;BME280;50187;50.492;12.134;2023-05-10T04:07:51;96886.88;;;21.27;34.00
20160;BME280;50187;50.492;12.134;2023-05-10T04:10:18;96889.78;;;21.25;34.24
20160;BME280;50187;50.492;12.134;2023-05-10T04:12:44;96873.94;;;21.22;34.03
20160;BME280;50187;50.492;12.134;2023-05-10T04:15:11;96881.00;;;21.23;34.00
20160;BME280;50187;50.492;12.134;2023-05-10T04:17:38;96883.69;;;21.23;34.24
20160;BME280;50187;50.492;12.134;2023-05-10T04:20:05;96882.06;;;21.22;34.02
20160;BME280;50187;50.492;12.134;2023-05-10T04:22:32;96874.13;;;21.21;34.16
20160;BME280;50187;50.492;12.134;2023-05-10T04:24:59;96895.91;;;21.19;34.13
20160;BME280;50187;50.492;12.134;2023-05-10T04:27:25;96884.75;;;21.22;34.14
20160;BME280;50187;50.492;12.134;2023-05-10T04:29:52;96892.19;;;21.20;34.05
20160;BME280;50187;50.492;12.134;2023-05-10T04:32:19;96892.69;;;21.24;34.26
20160;BME280;50187;50.492;12.134;2023-05-10T04:34:46;96892.88;;;21.22;34.16
20160;BME280;50187;50.492;12.134;2023-05-10T04:37:13;96880.66;;;21.26;34.05
20160;BME280;50187;50.492;12.134;2023-05-10T04:39:40;96892.31;;;21.27;34.29
20160;BME280;50187;50.492;12.134;2023-05-10T04:42:08;96896.03;;;21.26;33.99
20160;BME280;50187;50.492;12.134;2023-05-10T04:44:35;96879.97;;;21.24;34.04
20160;BME280;50187;50.492;12.134;2023-05-10T04:47:01;96902.94;;;21.28;34.14
20160;BME280;50187;50.492;12.134;2023-05-10T04:49:29;96886.06;;;21.26;34.18
20160;BME280;50187;50.492;12.134;2023-05-10T04:51:56;96887.66;;;21.21;34.08
20160;BME280;50187;50.492;12.134;2023-05-10T04:54:23;96888.09;;;21.24;34.23
20160;BME280;50187;50.492;12.134;2023-05-10T04:56:49;96899.28;;;21.21;34.19
20160;BME280;50187;50.492;12.134;2023-05-10T04:59:16;96901.63;;;21.24;34.07
20160;BME280;50187;50.492;12.134;2023-05-10T05:01:43;96910.22;;;21.28;34.00
20160;BME280;50187;50.492;12.134;2023-05-10T05:04:10;96899.75;;;21.25;34.18
20160;BME280;50187;50.492;12.134;2023-05-10T05:06:36;96900.22;;;21.28;34.09
20160;BME280;50187;50.492;12.134;2023-05-10T05:09:03;96879.16;;;21.24;34.17
20160;BME280;50187;50.492;12.134;2023-05-10T05:11:29;96886.69;;;21.28;33.82
20160;BME280;50187;50.492;12.134;2023-05-10T05:13:56;96893.50;;;21.24;34.01
20160;BME280;50187;50.492;12.134;2023-05-10T05:16:22;96913.38;;;21.32;33.99
20160;BME280;50187;50.492;12.134;2023-05-10T05:18:49;96897.34;;;21.30;34.11
20160;BME280;50187;50.492;12.134;2023-05-10T05:21:17;96887.06;;;21.25;34.12
20160;BME280;50187;50.492;12.134;2023-05-10T05:23:44;96915.34;;;21.38;34.13
20160;BME280;50187;50.492;12.134;2023-05-10T05:26:11;96899.13;;;21.38;34.04
20160;BME280;50187;50.492;12.134;2023-05-10T05:28:37;96918.59;;;21.33;34.03
20160;BME280;50187;50.492;12.134;2023-05-10T05:31:04;96896.13;;;21.33;34.08
20160;BME280;50187;50.492;12.134;2023-05-10T05:33:32;96914.97;;;21.41;34.10
20160;BME280;50187;50.492;12.134;2023-05-10T05:36:00;96912.47;;;21.39;34.06
20160;BME280;50187;50.492;12.134;2023-05-10T05:38:27;96901.97;;;21.36;34.05
20160;BME280;50187;50.492;12.134;2023-05-10T05:40:54;96907.41;;;21.36;33.95
20160;BME280;50187;50.492;12.134;2023-05-10T05:43:20;96918.69;;;21.40;33.92
20160;BME280;50187;50.492;12.134;2023-05-10T05:45:47;96909.19;;;21.44;34.17
20160;BME280;50187;50.492;12.134;2023-05-10T05:48:14;96905.84;;;21.42;33.96
20160;BME280;50187;50.492;12.134;2023-05-10T05:50:40;96903.28;;;21.40;34.02
20160;BME280;50187;50.492;12.134;2023-05-10T05:53:08;96912.53;;;21.46;33.93
20160;BME280;50187;50.492;12.134;2023-05-10T05:55:34;96923.34;;;21.46;34.07
20160;BME280;50187;50.492;12.134;2023-05-10T05:58:01;96931.84;;;21.43;34.04
20160;BME280;50187;50.492;12.134;2023-05-10T06:00:28;96921.09;;;21.35;33.93
20160;BME280;50187;50.492;12.134;2023-05-10T06:02:54;96963.59;;;21.49;34.06
20160;BME280;50187;50.492;12.134;2023-05-10T06:05:21;96953.41;;;21.51;33.93
20160;BME280;50187;50.492;12.134;2023-05-10T06:07:48;96943.34;;;21.45;34.01
20160;BME280;50187;50.492;12.134;2023-05-10T06:14:20;96957.13;;;21.50;34.00
20160;BME280;50187;50.492;12.134;2023-05-10T06:16:47;96965.09;;;21.52;34.14
20160;BME280;50187;50.492;12.134;2023-05-10T06:19:13;96979.28;;;21.54;33.97
20160;BME280;50187;50.492;12.134;2023-05-10T06:21:40;96974.59;;;21.48;33.88
20160;BME280;50187;50.492;12.134;2023-05-10T06:24:06;96984.91;;;21.52;34.29
20160;BME280;50187;50.492;12.134;2023-05-10T06:26:33;96991.28;;;21.51;34.05
20160;BME280;50187;50.492;12.134;2023-05-10T06:28:59;96995.00;;;21.50;34.24
20160;BME280;50187;50.492;12.134;2023-05-10T06:31:26;96996.25;;;21.48;34.23
20160;BME280;50187;50.492;12.134;2023-05-10T06:33:53;97000.63;;;21.49;34.05
20160;BME280;50187;50.492;12.134;2023-05-10T06:36:22;96995.38;;;21.47;34.30
20160;BME280;50187;50.492;12.134;2023-05-10T06:38:49;97001.81;;;21.46;34.26
20160;BME280;50187;50.492;12.134;2023-05-10T06:41:17;97000.16;;;21.45;34.22
20160;BME280;50187;50.492;12.134;2023-05-10T06:43:43;97008.28;;;21.45;34.19
20160;BME280;50187;50.492;12.134;2023-05-10T06:46:10;97017.22;;;21.45;34.30
20160;BME280;50187;50.492;12.134;2023-05-10T06:48:37;97022.63;;;21.45;34.18
20160;BME280;50187;50.492;12.134;2023-05-10T06:51:03;97012.38;;;21.41;34.49
20160;BME280;50187;50.492;12.134;2023-05-10T06:53:30;97023.19;;;21.41;34.30
20160;BME280;50187;50.492;12.134;2023-05-10T06:55:56;97040.75;;;21.45;34.47
20160;BME280;50187;50.492;12.134;2023-05-10T06:58:23;97023.47;;;21.46;34.44
20160;BME280;50187;50.492;12.134;2023-05-10T07:00:49;97023.66;;;21.44;34.38
20160;BME280;50187;50.492;12.134;2023-05-10T07:03:16;97025.72;;;21.42;34.58
20160;BME280;50187;50.492;12.134;2023-05-10T07:05:42;97029.44;;;21.41;34.43
20160;BME280;50187;50.492;12.134;2023-05-10T07:08:09;97028.41;;;21.42;34.61
20160;BME280;50187;50.492;12.134;2023-05-10T07:10:36;97029.44;;;21.41;34.42
20160;BME280;50187;50.492;12.134;2023-05-10T07:13:03;97030.28;;;21.42;34.54
20160;BME280;50187;50.492;12.134;2023-05-10T07:15:29;97033.00;;;21.42;34.62
20160;BME280;50187;50.492;12.134;2023-05-10T07:17:56;97027.94;;;21.39;34.62
20160;BME280;50187;50.492;12.134;2023-05-10T07:20:22;97035.22;;;21.38;34.90
20160;BME280;50187;50.492;12.134;2023-05-10T07:22:49;97028.31;;;21.36;34.86
20160;BME280;50187;50.492;12.134;2023-05-10T07:25:16;97035.09;;;21.32;34.98
20160;BME280;50187;50.492;12.134;2023-05-10T07:27:42;97041.72;;;21.29;34.91
20160;BME280;50187;50.492;12.134;2023-05-10T07:30:09;97036.50;;;21.27;34.89
20160;BME280;50187;50.492;12.134;2023-05-10T07:32:36;97035.84;;;21.25;34.99
20160;BME280;50187;50.492;12.134;2023-05-10T07:35:03;97043.09;;;21.25;35.11
20160;BME280;50187;50.492;12.134;2023-05-10T07:37:30;97041.44;;;21.24;35.27
20160;BME280;50187;50.492;12.134;2023-05-10T07:39:56;97051.59;;;21.22;35.28
20160;BME280;50187;50.492;12.134;2023-05-10T07:42:22;97043.28;;;21.23;35.31
20160;BME280;50187;50.492;12.134;2023-05-10T07:44:49;97042.63;;;21.21;35.41
20160;BME280;50187;50.492;12.134;2023-05-10T07:47:16;97040.13;;;21.20;35.21
20160;BME280;50187;50.492;12.134;2023-05-10T07:49:42;97049.06;;;21.20;35.16
20160;BME280;50187;50.492;12.134;2023-05-10T07:52:09;97047.38;;;21.19;35.15
20160;BME280;50187;50.492;12.134;2023-05-10T07:54:36;97048.59;;;21.17;35.41
20160;BME280;50187;50.492;12.134;2023-05-10T07:57:02;97042.34;;;21.16;35.59
20160;BME280;50187;50.492;12.134;2023-05-10T07:59:29;97046.09;;;21.15;35.48
20160;BME280;50187;50.492;12.134;2023-05-10T08:01:56;97048.94;;;21.14;35.46
20160;BME280;50187;50.492;12.134;2023-05-10T08:04:22;97048.13;;;21.13;35.29
20160;BME280;50187;50.492;12.134;2023-05-10T08:06:49;97048.94;;;21.14;35.50
20160;BME280;50187;50.492;12.134;2023-05-10T08:09:16;97047.66;;;21.09;35.24
20160;BME280;50187;50.492;12.134;2023-05-10T08:11:43;97044.28;;;21.07;35.56
20160;BME280;50187;50.492;12.134;2023-05-10T08:14:10;97047.66;;;21.09;35.42
20160;BME280;50187;50.492;12.134;2023-05-10T08:16:36;97048.47;;;21.10;35.64
20160;BME280;50187;50.492;12.134;2023-05-10T08:19:02;97054.06;;;21.08;35.70
20160;BME280;50187;50.492;12.134;2023-05-10T08:21:29;97049.69;;;21.07;35.69
20160;BME280;50187;50.492;12.134;2023-05-10T08:23:57;97051.56;;;21.07;35.66
20160;BME280;50187;50.492;12.134;2023-05-10T08:26:24;97053.22;;;21.08;35.73
20160;BME280;50187;50.492;12.134;2023-05-10T08:28:50;97057.78;;;21.07;35.55
20160;BME280;50187;50.492;12.134;2023-05-10T08:31:17;97058.81;;;21.06;35.64
20160;BME280;50187;50.492;12.134;2023-05-10T08:33:44;97055.47;;;21.04;35.87
20160;BME280;50187;50.492;12.134;2023-05-10T08:36:11;97059.66;;;21.07;35.64
20160;BME280;50187;50.492;12.134;2023-05-10T08:38:37;97071.13;;;21.09;35.80
20160;BME280;50187;50.492;12.134;2023-05-10T08:41:04;97070.31;;;21.08;35.88
20160;BME280;50187;50.492;12.134;2023-05-10T08:43:31;97070.66;;;21.05;35.75
20160;BME280;50187;50.492;12.134;2023-05-10T08:46:00;97069.63;;;21.06;35.85
20160;BME280;50187;50.492;12.134;2023-05-10T08:48:29;97071.31;;;21.07;35.97
20160;BME280;50187;50.492;12.134;2023-05-10T08:50:59;97067.47;;;21.02;35.64
20160;BME280;50187;50.492;12.134;2023-05-10T08:53:27;97079.25;;;21.09;35.89
20160;BME280;50187;50.492;12.134;2023-05-10T08:55:54;97087.34;;;21.09;35.58
20160;BME280;50187;50.492;12.134;2023-05-10T08:58:21;97087.53;;;21.07;35.76
20160;BME280;50187;50.492;12.134;2023-05-10T09:00:49;97088.22;;;21.09;35.96
20160;BME280;50187;50.492;12.134;2023-05-10T09:03:18;97079.59;;;21.06;35.78
20160;BME280;50187;50.492;12.134;2023-05-10T09:05:45;97082.50;;;21.04;35.98
20160;BME280;50187;50.492;12.134;2023-05-10T09:08:13;97092.94;;;21.07;35.92
20160;BME280;50187;50.492;12.134;2023-05-10T09:10:43;97097.72;;;21.05;35.93
20160;BME280;50187;50.492;12.134;2023-05-10T09:13:10;97090.97;;;21.01;35.91
20160;BME280;50187;50.492;12.134;2023-05-10T09:15:38;97096.19;;;21.03;35.85
20160;BME280;50187;50.492;12.134;2023-05-10T09:18:05;97103.94;;;21.06;35.76
20160;BME280;50187;50.492;12.134;2023-05-10T09:20:31;97104.97;;;21.05;35.83
20160;BME280;50187;50.492;12.134;2023-05-10T09:22:58;97103.44;;;21.02;35.85
20160;BME280;50187;50.492;12.134;2023-05-10T09:25:24;97104.13;;;21.04;36.08
20160;BME280;50187;50.492;12.134;2023-05-10T09:27:52;97111.38;;;21.04;36.13
20160;BME280;50187;50.492;12.134;2023-05-10T09:30:26;97116.78;;;21.04;35.84
20160;BME280;50187;50.492;12.134;2023-05-10T09:32:54;97108.53;;;21.05;35.78
20160;BME280;50187;50.492;12.134;2023-05-10T09:35:24;97120.34;;;21.04;35.85
20160;BME280;50187;50.492;12.134;2023-05-10T09:38:02;97119.50;;;21.04;35.96
20160;BME280;50187;50.492;12.134;2023-05-10T09:40:30;97123.25;;;21.03;36.00
20160;BME280;50187;50.492;12.134;2023-05-10T09:43:03;97123.25;;;21.03;35.93
20160;BME280;50187;50.492;12.134;2023-05-10T09:45:33;97132.19;;;21.03;35.97
20160;BME280;50187;50.492;12.134;2023-05-10T09:48:04;97127.78;;;21.02;36.33
20160;BME280;50187;50.492;12.134;2023-05-10T09:50:31;97125.44;;;20.99;36.11
20160;BME280;50187;50.492;12.134;2023-05-10T09:52:59;97129.66;;;21.02;36.11
20160;BME280;50187;50.492;12.134;2023-05-10T09:55:39;97130.50;;;21.02;36.07
20160;BME280;50187;50.492;12.134;2023-05-10T09:58:06;97125.25;;;21.01;36.04
20160;BME280;50187;50.492;12.134;2023-05-10T10:00:38;97133.38;;;21.01;36.10
20160;BME280;50187;50.492;12.134;2023-05-10T10:03:12;97127.97;;;21.01;36.16
20160;BME280;50187;50.492;12.134;2023-05-10T10:05:41;97130.03;;;20.99;36.42
20160;BME280;50187;50.492;12.134;2023-05-10T10:08:09;97126.97;;;21.02;36.31
20160;BME280;50187;50.492;12.134;2023-05-10T10:10:36;97121.06;;;20.98;36.27
20160;BME280;50187;50.492;12.134;2023-05-10T10:13:03;97128.16;;;20.99;36.27
20160;BME280;50187;50.492;12.134;2023-05-10T10:15:32;97130.50;;;21.02;36.14
20160;BME280;50187;50.492;12.134;2023-05-10T10:17:59;97131.03;;;20.98;36.40
20160;BME280;50187;50.492;12.134;2023-05-10T10:20:26;97129.66;;;21.02;36.35
20160;BME280;50187;50.492;12.134;2023-05-10T10:22:53;97134.25;;;21.01;36.13
20160;BME280;50187;50.492;12.134;2023-05-10T10:25:20;97121.91;;;20.99;36.42
20160;BME280;50187;50.492;12.134;2023-05-10T10:35:55;97117.34;;;20.99;36.30
20160;BME280;50187;50.492;12.134;2023-05-10T10:38:24;97134.56;;;20.98;36.42
20160;BME280;50187;50.492;12.134;2023-05-10T10:41:09;97116.13;;;21.02;36.54
20160;BME280;50187;50.492;12.134;2023-05-10T10:43:37;97120.72;;;21.01;36.29
20160;BME280;50187;50.492;12.134;2023-05-10T10:46:14;97121.91;;;20.99;36.51
20160;BME280;50187;50.492;12.134;2023-05-10T10:48:43;97123.59;;;21.00;36.51
20160;BME280;50187;50.492;12.134;2023-05-10T10:51:13;97142.53;;;21.00;36.38
20160;BME280;50187;50.492;12.134;2023-05-10T10:53:40;97129.84;;;21.00;36.46
20160;BME280;50187;50.492;12.134;2023-05-10T10:56:09;97121.53;;;21.02;36.58
20160;BME280;50187;50.492;12.134;2023-05-10T10:58:37;97129.47;;;21.03;36.30
20160;BME280;50187;50.492;12.134;2023-05-10T11:01:16;97126.97;;;21.02;36.42
20160;BME280;50187;50.492;12.134;2023-05-10T11:06:32;97114.09;;;21.04;36.35
20160;BME280;50187;50.492;12.134;2023-05-10T11:09:05;97117.97;;;21.09;36.31
20160;BME280;50187;50.492;12.134;2023-05-10T11:11:34;97114.94;;;21.04;36.40
20160;BME280;50187;50.492;12.134;2023-05-10T11:14:05;97123.00;;;21.13;36.56
20160;BME280;50187;50.492;12.134;2023-05-10T11:16:41;97120.50;;;21.11;36.31
20160;BME280;50187;50.492;12.134;2023-05-10T11:19:11;97117.97;;;21.09;36.42
20160;BME280;50187;50.492;12.134;2023-05-10T11:24:31;97118.63;;;21.12;36.37
20160;BME280;50187;50.492;12.134;2023-05-10T11:26:58;97114.03;;;21.12;36.44
20160;BME280;50187;50.492;12.134;2023-05-10T11:29:24;97115.53;;;21.15;36.68
20160;BME280;50187;50.492;12.134;2023-05-10T11:31:52;97123.00;;;21.13;36.58
20160;BME280;50187;50.492;12.134;2023-05-10T11:34:28;97118.25;;;21.15;36.61
20160;BME280;50187;50.492;12.134;2023-05-10T11:36:57;97113.50;;;21.17;36.48
20160;BME280;50187;50.492;12.134;2023-05-10T11:39:28;97109.59;;;21.19;36.26
20160;BME280;50187;50.492;12.134;2023-05-10T11:41:55;97105.88;;;21.20;36.50
20160;BME280;50187;50.492;12.134;2023-05-10T11:44:22;97123.97;;;21.20;36.32
20160;BME280;50187;50.492;12.134;2023-05-10T11:46:49;97117.38;;;21.22;36.34
20160;BME280;50187;50.492;12.134;2023-05-10T11:49:16;97112.78;;;21.23;36.28
20160;BME280;50187;50.492;12.134;2023-05-10T11:51:42;97113.44;;;21.25;36.44
20160;BME280;50187;50.492;12.134;2023-05-10T11:54:10;97117.00;;;21.25;36.11
20160;BME280;50187;50.492;12.134;2023-05-10T11:56:40;97114.28;;;21.25;36.23
20160;BME280;50187;50.492;12.134;2023-05-10T11:59:07;97117.63;;;21.27;36.07
20160;BME280;50187;50.492;12.134;2023-05-10T12:01:34;97118.69;;;21.26;36.36
20160;BME280;50187;50.492;12.134;2023-05-10T12:04:01;97133.22;;;21.25;36.25
20160;BME280;50187;50.492;12.134;2023-05-10T12:06:32;97120.72;;;21.24;36.31
20160;BME280;50187;50.492;12.134;2023-05-10T12:09:06;97133.03;;;21.27;36.28
20160;BME280;50187;50.492;12.134;2023-05-10T12:11:37;97128.66;;;21.26;36.43
20160;BME280;50187;50.492;12.134;2023-05-10T12:14:08;97123.22;;;21.26;36.28
20160;BME280;50187;50.492;12.134;2023-05-10T12:16:35;97125.28;;;21.24;36.10
20160;BME280;50187;50.492;12.134;2023-05-10T12:19:02;97129.50;;;21.26;36.21
20160;BME280;50187;50.492;12.134;2023-05-10T12:21:29;97130.53;;;21.25;36.11
20160;BME280;50187;50.492;12.134;2023-05-10T12:24:01;97132.22;;;21.26;36.13
20160;BME280;50187;50.492;12.134;2023-05-10T12:26:29;97120.34;;;21.27;36.14
20160;BME280;50187;50.492;12.134;2023-05-10T12:29:17;97126.44;;;21.30;36.23
20160;BME280;50187;50.492;12.134;2023-05-10T12:31:54;97124.75;;;21.28;36.07
20160;BME280;50187;50.492;12.134;2023-05-10T12:34:34;97120.34;;;21.27;36.07
20160;BME280;50187;50.492;12.134;2023-05-10T12:37:02;97125.75;;;21.27;36.33
20160;BME280;50187;50.492;12.134;2023-05-10T12:39:43;97121.84;;;21.30;36.13
20160;BME280;50187;50.492;12.134;2023-05-10T12:42:11;97126.63;;;21.28;36.31
20160;BME280;50187;50.492;12.134;2023-05-10T12:44:38;97120.34;;;21.27;36.36
20160;BME280;50187;50.492;12.134;2023-05-10T12:47:04;97123.59;;;21.23;36.32
20160;BME280;50187;50.492;12.134;2023-05-10T12:49:32;97129.19;;;21.21;36.21
20160;BME280;50187;50.492;12.134;2023-05-10T12:51:58;97136.13;;;21.24;36.33
20160;BME280;50187;50.492;12.134;2023-05-10T12:54:25;97145.41;;;21.21;36.21
20160;BME280;50187;50.492;12.134;2023-05-10T12:56:52;97143.72;;;21.20;36.44
20160;BME280;50187;50.492;12.134;2023-05-10T12:59:18;97141.38;;;21.17;36.35
20160;BME280;50187;50.492;12.134;2023-05-10T13:01:45;97148.84;;;21.15;36.32
20160;BME280;50187;50.492;12.134;2023-05-10T13:04:11;97145.47;;;21.13;36.42
20160;BME280;50187;50.492;12.134;2023-05-10T13:06:38;97146.66;;;21.10;36.65
20160;BME280;50187;50.492;12.134;2023-05-10T13:09:04;97150.41;;;21.09;36.74
20160;BME280;50187;50.492;12.134;2023-05-10T13:11:31;97149.56;;;21.09;36.71
20160;BME280;50187;50.492;12.134;2023-05-10T13:13:57;97151.94;;;21.04;36.66
20160;BME280;50187;50.492;12.134;2023-05-10T13:16:24;97158.84;;;21.06;36.71
20160;BME280;50187;50.492;12.134;2023-05-10T13:18:51;97150.28;;;21.03;36.63
20160;BME280;50187;50.492;12.134;2023-05-10T13:21:17;97156.34;;;21.05;36.56
20160;BME280;50187;50.492;12.134;2023-05-10T13:23:43;97155.69;;;21.03;36.59
20160;BME280;50187;50.492;12.134;2023-05-10T13:26:10;97157.34;;;21.04;36.81